Sea Cloud — 9HOM2 — position and weather

sailwx.info

Track history (hours):
 
Tides and Currents Weather Stations Pressure Air Temp Water Temp Dewpoint Dewpoint Depression Visibility Wind Speed Wind Dir Waves Ship Positions

Sea Cloud

Ship's website: http://www.seacloud.com/en/the-ships/sea-cloud.html

Last reported at 2019-Mar-23 09:38 UTC. Time now 2019-Mar-26 00:01 UTC.
Position N 17°54' W 062°56'.

Length 110 m; draft 5.3 m.

Type: Ship. MMSI: 256084000.

Date/timePositionNaut miles runAvg speedWind from/ knotsBaromVisibWave heightAir tempDewpointWater temp
2019-Mar-23 09:38N 17°54' W 062°56'2 5.3
2019-Mar-23 09:18N 17°54' W 062°58'2 6.1
2019-Mar-23 08:58N 17°54' W 062°60'3 6.1
2019-Mar-23 08:27N 17°55' W 063°03'3 5.9
2019-Mar-23 07:54N 17°56' W 063°06'2 4.0
2019-Mar-23 07:24N 17°57' W 063°08'2 3.9
2019-Mar-23 06:59N 17°57' W 063°10'2 4.0
2019-Mar-23 06:30N 17°58' W 063°12'3 4.1
2019-Mar-23 05:53N 17°59' W 063°15'2 4.2
2019-Mar-23 05:26N 17°59' W 063°16'2 4.4
2019-Mar-23 04:54N 17°60' W 063°19'2 4.5
2019-Mar-23 04:29N 18°00' W 063°21'2 4.4
2019-Mar-23 03:59N 18°01' W 063°23'2 4.5
2019-Mar-23 03:29N 18°01' W 063°25'2 4.6
2019-Mar-23 02:58N 18°01' W 063°28'3 5.2
2019-Mar-23 02:26N 18°02' W 063°31'59 3.7
2019-Mar-22 10:38N 18°26' W 064°27'1 8.2
2019-Mar-22 10:30N 18°25' W 064°28'55 5.6
2019-Mar-22 00:45N 18°03' W 063°35'2 6.5
2019-Mar-22 00:29N 18°02' W 063°34'4 7.4
2019-Mar-22 00:00N 18°00' W 063°30'4 7.9
2019-Mar-21 23:30N 17°59' W 063°27'510.0
2019-Mar-21 23:00N 17°57' W 063°22'510.0
2019-Mar-21 22:30N 17°55' W 063°17'4 7.7
2019-Mar-21 22:00N 17°53' W 063°13'2 4.5
2019-Mar-21 21:30N 17°53' W 063°11'3 4.5
2019-Mar-21 20:56N 17°52' W 063°08'3 5.7
2019-Mar-21 20:28N 17°50' W 063°06'3 5.7
2019-Mar-21 20:00N 17°48' W 063°04'3 5.3
2019-Mar-21 19:30N 17°46' W 063°03'3 5.3
2019-Mar-21 19:00N 17°44' W 063°01'3 5.1
2019-Mar-21 18:24N 17°42' W 062°58'3 6.4
2019-Mar-21 17:58N 17°41' W 062°56'203 4.9
2019-Mar-20 00:36N 14°41' W 061°19'1 9.4
2019-Mar-20 00:28N 14°39' W 061°18'6 9.9
2019-Mar-19 23:49N 14°33' W 061°17'310.1
2019-Mar-19 23:30N 14°30' W 061°17'  
2019-Mar-15 22:24N 13°34' W 060°56'8 7.6
2019-Mar-15 21:20N 13°38' W 061°03'  
Track history (hours):
 
Tides and Currents Weather Stations Pressure Air Temp Water Temp Dewpoint Dewpoint Depression Visibility Wind Speed Wind Dir Waves Ship Positions

Sea Cloud

Ship's website: http://www.seacloud.com/en/the-ships/sea-cloud.html

Last reported at 2019-Mar-23 09:38 UTC. Time now 2019-Mar-26 00:01 UTC.
Position N 17°54' W 062°56'.

Length 110 m; draft 5.3 m.

Type: Ship. MMSI: 256084000.

Date/timePositionNaut miles runAvg speedWind from/ knotsBaromVisibWave heightAir tempDewpointWater temp
2019-Mar-23 09:38N 17°54' W 062°56'2 5.3
2019-Mar-23 09:18N 17°54' W 062°58'2 6.1
2019-Mar-23 08:58N 17°54' W 062°60'3 6.1
2019-Mar-23 08:27N 17°55' W 063°03'3 5.9
2019-Mar-23 07:54N 17°56' W 063°06'2 4.0
2019-Mar-23 07:24N 17°57' W 063°08'2 3.9
2019-Mar-23 06:59N 17°57' W 063°10'2 4.0
2019-Mar-23 06:30N 17°58' W 063°12'3 4.1
2019-Mar-23 05:53N 17°59' W 063°15'2 4.2
2019-Mar-23 05:26N 17°59' W 063°16'2 4.4
2019-Mar-23 04:54N 17°60' W 063°19'2 4.5
2019-Mar-23 04:29N 18°00' W 063°21'2 4.4
2019-Mar-23 03:59N 18°01' W 063°23'2 4.5
2019-Mar-23 03:29N 18°01' W 063°25'2 4.6
2019-Mar-23 02:58N 18°01' W 063°28'3 5.2
2019-Mar-23 02:26N 18°02' W 063°31'59 3.7
2019-Mar-22 10:38N 18°26' W 064°27'1 8.2
2019-Mar-22 10:30N 18°25' W 064°28'55 5.6
2019-Mar-22 00:45N 18°03' W 063°35'2 6.5
2019-Mar-22 00:29N 18°02' W 063°34'4 7.4
2019-Mar-22 00:00N 18°00' W 063°30'4 7.9
2019-Mar-21 23:30N 17°59' W 063°27'510.0
2019-Mar-21 23:00N 17°57' W 063°22'510.0
2019-Mar-21 22:30N 17°55' W 063°17'4 7.7
2019-Mar-21 22:00N 17°53' W 063°13'2 4.5
2019-Mar-21 21:30N 17°53' W 063°11'3 4.5
2019-Mar-21 20:56N 17°52' W 063°08'3 5.7
2019-Mar-21 20:28N 17°50' W 063°06'3 5.7
2019-Mar-21 20:00N 17°48' W 063°04'3 5.3
2019-Mar-21 19:30N 17°46' W 063°03'3 5.3
2019-Mar-21 19:00N 17°44' W 063°01'3 5.1
2019-Mar-21 18:24N 17°42' W 062°58'3 6.4
2019-Mar-21 17:58N 17°41' W 062°56'203 4.9
2019-Mar-20 00:36N 14°41' W 061°19'1 9.4
2019-Mar-20 00:28N 14°39' W 061°18'6 9.9
2019-Mar-19 23:49N 14°33' W 061°17'310.1
2019-Mar-19 23:30N 14°30' W 061°17'  
2019-Mar-15 22:24N 13°34' W 060°56'8 7.6
2019-Mar-15 21:20N 13°38' W 061°03'  

Dump ship's entire track history